Time;durP1;ratioP1;P1;durP2;ratioP2;P2;SDS_P1;SDS_P2;PMS_P1;PMS_P2;Temp;Humidity;BMP_temperature;BMP_pressure;BME280_temperature;BME280_humidity;BME280_pressure;Samples;Min_cycle;Max_cycle;Signal;HPM_P1;HPM_P2
2022/11/15 00:00:52;;;;;;;77.35;72.10;;;8.10;99.90;;;;;;5088683;28;20393;-53
2022/11/15 00:03:21;;;;;;;77.00;71.90;;;8.10;99.90;;;;;;5086589;28;20833;-54
2022/11/15 00:05:47;;;;;;;79.03;73.68;;;8.10;99.90;;;;;;5083281;28;20539;-54
2022/11/15 00:08:12;;;;;;;82.78;77.35;;;8.10;99.90;;;;;;5083067;28;20386;-54
2022/11/15 00:10:38;;;;;;;76.43;71.43;;;8.10;99.90;;;;;;5083433;28;20703;-55
2022/11/15 00:13:14;;;;;;;81.60;76.27;;;8.10;99.90;;;;;;5084222;28;20443;-53
2022/11/15 00:15:43;;;;;;;74.50;69.30;;;8.00;99.90;;;;;;5086590;28;20384;-52
2022/11/15 00:18:15;;;;;;;80.83;75.53;;;8.00;99.90;;;;;;5084027;28;20394;-55
2022/11/15 00:20:41;;;;;;;76.78;71.68;;;8.00;99.90;;;;;;5084114;28;20390;-55
2022/11/15 00:23:07;;;;;;;78.00;72.70;;;8.00;99.90;;;;;;5083576;28;20394;-55
2022/11/15 00:25:33;;;;;;;74.53;69.40;;;8.10;99.90;;;;;;5084356;28;20767;-53
2022/11/15 00:28:00;;;;;;;69.50;64.70;;;8.00;99.90;;;;;;5083020;28;20448;-50
2022/11/15 00:30:26;;;;;;;85.13;79.43;;;8.00;99.90;;;;;;5082038;28;20485;-54
2022/11/15 00:32:52;;;;;;;74.57;69.55;;;8.00;99.90;;;;;;5083263;28;20477;-55
2022/11/15 00:35:18;;;;;;;70.65;65.95;;;8.00;99.90;;;;;;5084761;28;20389;-53
2022/11/15 00:37:44;;;;;;;73.95;69.00;;;8.00;99.90;;;;;;5085645;28;20492;-52
2022/11/15 00:40:10;;;;;;;72.90;67.95;;;8.00;99.90;;;;;;5085255;28;20473;-54
2022/11/15 00:42:35;;;;;;;72.72;67.85;;;8.00;99.90;;;;;;5086630;28;20419;-48
2022/11/15 00:45:01;;;;;;;72.83;68.00;;;8.00;99.90;;;;;;5087148;28;20424;-52
2022/11/15 00:47:30;;;;;;;71.32;66.55;;;8.00;99.90;;;;;;5086062;28;20775;-52
2022/11/15 00:49:55;;;;;;;72.53;67.57;;;8.00;99.90;;;;;;5087300;28;20479;-50
2022/11/15 00:52:21;;;;;;;67.80;62.90;;;7.90;99.90;;;;;;5087126;28;20805;-53
2022/11/15 00:54:46;;;;;;;72.30;67.60;;;7.90;99.90;;;;;;5092385;28;20398;-54
2022/11/15 00:57:12;;;;;;;80.03;74.93;;;7.80;99.90;;;;;;5091909;28;20392;-52
2022/11/15 00:59:37;;;;;;;77.90;72.87;;;7.80;99.90;;;;;;5090271;28;20418;-54
2022/11/15 01:02:03;;;;;;;75.63;70.53;;;7.80;99.90;;;;;;5090647;28;20398;-54
2022/11/15 01:04:28;;;;;;;76.60;71.63;;;7.80;99.90;;;;;;5089149;28;20417;-56
2022/11/15 01:06:54;;;;;;;72.77;67.97;;;7.80;99.90;;;;;;5090624;28;20895;-57
2022/11/15 01:09:19;;;;;;;78.35;73.30;;;7.80;99.90;;;;;;5090724;28;20404;-55
2022/11/15 01:11:45;;;;;;;73.22;68.05;;;7.90;99.90;;;;;;5090822;28;20390;-54
2022/11/15 01:14:10;;;;;;;77.37;72.20;;;7.80;99.90;;;;;;5088126;28;20385;-52
2022/11/15 01:16:36;;;;;;;79.83;74.27;;;7.80;99.90;;;;;;5087597;28;20393;-56
2022/11/15 01:19:02;;;;;;;73.35;68.43;;;7.80;99.90;;;;;;5085881;28;20780;-56
2022/11/15 01:21:28;;;;;;;73.80;68.82;;;7.80;99.90;;;;;;5087990;28;20401;-54
2022/11/15 01:23:55;;;;;;;72.93;67.93;;;7.80;99.90;;;;;;5087698;28;20672;-50
2022/11/15 01:26:20;;;;;;;67.70;63.00;;;7.80;99.90;;;;;;5090148;28;20417;-56
2022/11/15 01:28:46;;;;;;;69.55;64.82;;;7.80;99.90;;;;;;5090795;28;20409;-53
2022/11/15 01:31:15;;;;;;;65.47;60.90;;;7.80;99.90;;;;;;5093228;28;20392;-54
2022/11/15 01:33:41;;;;;;;65.22;60.72;;;7.90;99.90;;;;;;5092926;28;20393;-56
2022/11/15 01:36:10;;;;;;;61.13;56.93;;;7.90;99.90;;;;;;5092837;28;20739;-55
2022/11/15 01:38:36;;;;;;;64.50;60.03;;;7.90;99.90;;;;;;5091536;28;20397;-53
2022/11/15 01:41:02;;;;;;;63.90;59.50;;;7.90;99.90;;;;;;5090763;28;20413;-54
2022/11/15 01:43:31;;;;;;;58.58;54.45;;;7.90;99.90;;;;;;5088552;28;20447;-55
2022/11/15 01:46:19;;;;;;;64.47;59.97;;;7.90;99.90;;;;;;5088211;28;20943;-54
2022/11/15 01:48:45;;;;;;;62.97;58.63;;;7.90;99.90;;;;;;5089955;28;20765;-55
2022/11/15 01:51:17;;;;;;;63.55;59.25;;;7.80;99.90;;;;;;5089137;28;20463;-51
2022/11/15 01:53:47;;;;;;;56.40;52.50;;;7.80;99.90;;;;;;5087898;28;20444;-52
2022/11/15 01:56:25;;;;;;;62.58;58.15;;;7.80;99.90;;;;;;5088277;28;20788;-55
2022/11/15 01:58:52;;;;;;;60.60;56.07;;;7.70;99.90;;;;;;5088855;28;20662;-51
2022/11/15 02:01:19;;;;;;;62.90;58.20;;;7.70;99.90;;;;;;5089236;28;20404;-54
2022/11/15 02:04:07;;;;;;;62.03;57.63;;;7.70;99.90;;;;;;5089016;28;20405;-55
2022/11/15 02:06:34;;;;;;;60.38;56.17;;;7.60;99.90;;;;;;5091623;28;20374;-55
2022/11/15 02:09:00;;;;;;;59.47;55.17;;;7.60;99.90;;;;;;5091394;28;20758;-53
2022/11/15 02:11:26;;;;;;;60.28;55.85;;;7.70;99.90;;;;;;5089694;28;20394;-52
2022/11/15 02:13:52;;;;;;;64.50;60.05;;;7.70;99.90;;;;;;5090299;28;20386;-52
2022/11/15 02:16:26;;;;;;;62.13;57.83;;;7.60;99.90;;;;;;5090788;28;20665;-55
2022/11/15 02:19:22;;;;;;;62.85;58.45;;;7.60;99.90;;;;;;5089772;28;20386;-52
2022/11/15 02:21:57;;;;;;;64.20;59.65;;;7.60;99.90;;;;;;5087739;28;20397;-49
2022/11/15 02:24:39;;;;;;;65.35;60.67;;;7.60;99.90;;;;;;5085789;28;20390;-52
2022/11/15 02:27:13;;;;;;;64.78;60.17;;;7.60;99.90;;;;;;5085759;28;20400;-49
2022/11/15 02:29:57;;;;;;;64.60;60.00;;;7.60;99.90;;;;;;5085458;28;20386;-52
2022/11/15 02:32:39;;;;;;;65.33;60.70;;;7.60;99.90;;;;;;5086625;28;20382;-54
2022/11/15 02:35:33;;;;;;;64.03;59.78;;;7.50;99.90;;;;;;5086258;28;20430;-55
2022/11/15 02:38:26;;;;;;;65.82;61.25;;;7.60;99.90;;;;;;5087592;28;20402;-55
2022/11/15 02:41:12;;;;;;;64.97;60.40;;;7.60;99.90;;;;;;5050983;28;20858;-56
2022/11/15 02:44:03;;;;;;;66.78;62.28;;;7.50;99.90;;;;;;5087666;28;20386;-50
2022/11/15 02:49:29;;;;;;;70.55;65.65;;;7.50;99.90;;;;;;5091167;28;20381;-51
2022/11/15 02:51:55;;;;;;;69.82;65.32;;;7.40;99.90;;;;;;5090622;28;20819;-56
2022/11/15 02:54:29;;;;;;;67.00;62.53;;;7.40;99.90;;;;;;5091748;28;20412;-55
2022/11/15 02:56:58;;;;;;;68.13;63.58;;;7.50;99.90;;;;;;5091034;28;20773;-52
2022/11/15 02:59:43;;;;;;;66.43;61.95;;;7.50;99.90;;;;;;5090285;28;20414;-52
2022/11/15 03:02:35;;;;;;;66.43;61.78;;;7.50;99.90;;;;;;5089937;28;20803;-52
2022/11/15 03:05:37;;;;;;;69.60;65.07;;;7.50;99.90;;;;;;5091194;28;20370;-57
2022/11/15 03:08:10;;;;;;;67.28;62.90;;;7.50;99.90;;;;;;5090543;28;20389;-53
2022/11/15 03:10:49;;;;;;;66.97;62.67;;;7.50;99.90;;;;;;5091487;28;20382;-57
2022/11/15 03:13:30;;;;;;;63.50;59.27;;;7.50;99.90;;;;;;5090439;28;20378;-53
2022/11/15 03:16:17;;;;;;;69.88;65.45;;;7.50;99.90;;;;;;5089995;28;20607;-55
2022/11/15 03:18:49;;;;;;;65.32;60.92;;;7.40;99.90;;;;;;5092202;28;20662;-50
2022/11/15 03:21:19;;;;;;;66.05;61.78;;;7.50;99.90;;;;;;5091644;28;20398;-54
2022/11/15 03:23:46;;;;;;;61.33;57.30;;;7.50;99.90;;;;;;5090915;28;20404;-55
2022/11/15 03:26:15;;;;;;;63.90;59.80;;;7.50;99.90;;;;;;5090259;28;20619;-55
2022/11/15 03:28:50;;;;;;;65.45;61.13;;;7.50;99.90;;;;;;5090626;28;20370;-52
2022/11/15 03:34:13;;;;;;;65.40;61.17;;;7.40;99.90;;;;;;5088214;28;20377;-51
2022/11/15 03:36:39;;;;;;;57.58;53.67;;;7.40;99.90;;;;;;5088959;28;20417;-55
2022/11/15 03:39:07;;;;;;;62.65;58.40;;;7.40;99.90;;;;;;5090229;28;20694;-57
2022/11/15 03:41:45;;;;;;;60.83;56.83;;;7.40;99.90;;;;;;5089598;28;20782;-52
2022/11/15 03:44:25;;;;;;;63.47;59.30;;;7.50;99.90;;;;;;5088640;28;20382;-55
2022/11/15 03:47:29;;;;;;;64.22;59.90;;;7.50;99.90;;;;;;5090196;28;20451;-53
2022/11/15 03:50:06;;;;;;;59.55;55.65;;;7.40;99.90;;;;;;5092389;28;20476;-55
2022/11/15 03:52:33;;;;;;;61.88;57.88;;;7.40;99.90;;;;;;5091227;28;20432;-54
2022/11/15 03:55:01;;;;;;;59.20;55.38;;;7.40;99.90;;;;;;5091277;28;20767;-53
2022/11/15 03:57:27;;;;;;;65.28;61.20;;;7.40;99.90;;;;;;5090168;28;20396;-53
2022/11/15 03:59:52;;;;;;;61.93;57.93;;;7.40;99.90;;;;;;5091487;28;20385;-56
2022/11/15 04:02:18;;;;;;;63.80;59.63;;;7.50;99.90;;;;;;5092257;28;20472;-51
2022/11/15 04:04:43;;;;;;;64.47;60.45;;;7.40;99.90;;;;;;5091429;28;20426;-56
2022/11/15 04:07:09;;;;;;;65.00;60.80;;;7.50;99.90;;;;;;5091601;28;20385;-52
2022/11/15 04:10:01;;;;;;;61.87;57.87;;;7.40;99.90;;;;;;5091618;28;20656;-55
2022/11/15 04:12:30;;;;;;;63.20;59.03;;;7.40;99.90;;;;;;5090954;28;20385;-57
2022/11/15 04:15:22;;;;;;;57.00;53.38;;;7.40;99.90;;;;;;5088156;28;20810;-55
2022/11/15 04:17:53;;;;;;;62.40;58.30;;;7.50;99.90;;;;;;5057510;28;20396;-54
2022/11/15 04:26:20;;;;;;;61.95;58.05;;;7.50;99.90;;;;;;5089559;28;20365;-52
2022/11/15 04:31:30;;;;;;;62.53;58.78;;;7.50;99.90;;;;;;5092006;28;20421;-55
2022/11/15 04:33:59;;;;;;;61.80;57.90;;;7.50;99.90;;;;;;5091947;28;20429;-51
2022/11/15 04:39:24;;;;;;;56.85;53.40;;;7.60;99.90;;;;;;5091202;28;20389;-53
2022/11/15 04:41:49;;;;;;;64.10;60.10;;;7.60;99.90;;;;;;5090356;28;20440;-57
2022/11/15 04:44:16;;;;;;;59.67;55.93;;;7.60;99.90;;;;;;5089223;28;20486;-54
2022/11/15 04:46:41;;;;;;;60.80;56.80;;;7.60;99.90;;;;;;5086560;28;20417;-51
2022/11/15 04:49:07;;;;;;;63.73;59.80;;;7.60;99.90;;;;;;5087797;28;20669;-53
2022/11/15 04:51:32;;;;;;;56.50;52.85;;;7.60;99.90;;;;;;5085076;28;20508;-56
2022/11/15 04:53:58;;;;;;;57.40;53.90;;;7.60;99.90;;;;;;5083833;28;20495;-52
2022/11/15 04:56:23;;;;;;;57.13;53.60;;;7.60;99.90;;;;;;5086419;28;20459;-55
2022/11/15 04:58:49;;;;;;;57.30;53.83;;;7.60;99.90;;;;;;5087901;28;20386;-55
2022/11/15 05:01:16;;;;;;;58.28;54.67;;;7.60;99.90;;;;;;5086923;28;20521;-50
2022/11/15 05:06:36;;;;;;;61.05;57.33;;;7.70;99.90;;;;;;5088523;28;20393;-49
2022/11/15 05:09:04;;;;;;;62.72;58.90;;;7.70;99.90;;;;;;5087421;28;20580;-52
2022/11/15 05:11:33;;;;;;;57.25;53.83;;;7.70;99.90;;;;;;5088138;28;20492;-55
2022/11/15 05:13:59;;;;;;;57.05;53.53;;;7.70;99.90;;;;;;5084272;28;20421;-57
2022/11/15 05:16:24;;;;;;;54.03;50.67;;;7.70;99.90;;;;;;5085297;28;20755;-52
2022/11/15 05:18:54;;;;;;;59.27;55.43;;;7.70;99.90;;;;;;5085193;28;20451;-56
2022/11/15 05:21:20;;;;;;;53.50;50.10;;;7.80;99.90;;;;;;5085181;28;20840;-53
2022/11/15 05:23:46;;;;;;;60.42;56.67;;;7.80;99.90;;;;;;5084765;28;20904;-52
2022/11/15 05:26:12;;;;;;;58.87;55.23;;;7.70;99.90;;;;;;5083701;28;20382;-54
2022/11/15 05:28:38;;;;;;;57.60;54.00;;;7.80;99.90;;;;;;5082660;28;20399;-54
2022/11/15 05:31:06;;;;;;;59.65;55.75;;;7.80;99.90;;;;;;5085469;28;20402;-54
2022/11/15 05:33:32;;;;;;;57.05;53.53;;;7.80;99.90;;;;;;5086731;28;20382;-55
2022/11/15 05:36:23;;;;;;;58.30;54.60;;;7.80;99.90;;;;;;5086820;28;20396;-57
2022/11/15 05:38:50;;;;;;;57.50;53.90;;;7.80;99.90;;;;;;5073417;28;20449;-54
2022/11/15 05:41:18;;;;;;;56.85;53.28;;;7.80;99.90;;;;;;5089743;28;20409;-57
2022/11/15 05:43:44;;;;;;;55.80;52.30;;;7.80;99.90;;;;;;5089675;28;20845;-57
2022/11/15 05:46:10;;;;;;;60.53;56.92;;;7.80;99.90;;;;;;5087044;28;20622;-54
2022/11/15 05:48:45;;;;;;;64.50;60.50;;;7.90;99.90;;;;;;5085778;28;20386;-56
2022/11/15 05:51:13;;;;;;;64.43;60.72;;;7.90;99.90;;;;;;5086397;28;20440;-56
2022/11/15 05:53:39;;;;;;;62.23;58.43;;;7.90;99.90;;;;;;5084916;28;20797;-50
2022/11/15 05:56:06;;;;;;;62.90;59.13;;;7.90;99.90;;;;;;5084225;28;20450;-54
2022/11/15 05:58:33;;;;;;;65.63;61.72;;;8.00;99.90;;;;;;5082509;28;20464;-54
2022/11/15 06:00:59;;;;;;;60.30;56.60;;;8.00;99.90;;;;;;5085650;28;20559;-52
2022/11/15 06:03:25;;;;;;;61.33;57.58;;;8.00;99.90;;;;;;5085169;28;20482;-51
2022/11/15 06:05:50;;;;;;;71.43;67.30;;;8.00;99.90;;;;;;5087970;28;20776;-51
2022/11/15 06:08:16;;;;;;;64.57;60.77;;;8.00;99.90;;;;;;5086691;28;20434;-55
2022/11/15 06:10:41;;;;;;;62.20;58.50;;;8.00;99.90;;;;;;5087705;28;20378;-55
2022/11/15 06:13:07;;;;;;;63.38;59.50;;;8.00;99.90;;;;;;5087956;28;20385;-56
2022/11/15 06:15:34;;;;;;;66.53;62.42;;;8.10;99.90;;;;;;5088131;28;20416;-55
2022/11/15 06:17:59;;;;;;;63.20;59.40;;;8.10;99.90;;;;;;5089794;28;20481;-56
2022/11/15 06:20:27;;;;;;;62.55;58.75;;;8.10;99.90;;;;;;5088827;28;20535;-56
2022/11/15 06:23:00;;;;;;;64.00;60.15;;;8.10;99.90;;;;;;5086785;28;20394;-51
2022/11/15 06:25:26;;;;;;;58.97;55.35;;;8.10;99.90;;;;;;5085920;28;20370;-53
2022/11/15 06:27:53;;;;;;;61.63;57.80;;;8.10;99.90;;;;;;5085615;28;20690;-57
2022/11/15 06:30:19;;;;;;;61.25;57.63;;;8.10;99.90;;;;;;5085498;28;20680;-54
2022/11/15 06:32:48;;;;;;;61.25;57.55;;;8.20;99.90;;;;;;5084392;28;20370;-54
2022/11/15 06:35:14;;;;;;;61.78;58.05;;;8.20;99.90;;;;;;5085673;28;20378;-54
2022/11/15 06:37:40;;;;;;;60.63;56.93;;;8.20;99.90;;;;;;5086098;28;20711;-52
2022/11/15 06:40:08;;;;;;;60.40;56.72;;;8.20;99.90;;;;;;5085656;28;20879;-55
2022/11/15 06:42:34;;;;;;;64.53;60.72;;;8.20;99.90;;;;;;5083901;28;20691;-53
2022/11/15 06:44:59;;;;;;;62.33;58.72;;;8.20;99.90;;;;;;5083474;28;20382;-56
2022/11/15 06:47:25;;;;;;;66.77;62.77;;;8.20;99.90;;;;;;5081643;28;20454;-52
2022/11/15 06:49:51;;;;;;;63.70;60.00;;;8.20;99.90;;;;;;5081949;28;20419;-52
2022/11/15 06:52:18;;;;;;;64.50;60.72;;;8.30;99.90;;;;;;5080100;28;20420;-54
2022/11/15 06:54:44;;;;;;;58.13;54.65;;;8.20;99.90;;;;;;5080589;28;20409;-52
2022/11/15 06:57:10;;;;;;;64.60;60.67;;;8.30;99.90;;;;;;5081939;28;20438;-52
2022/11/15 06:59:35;;;;;;;66.13;62.03;;;8.30;99.90;;;;;;5081473;28;20393;-56
2022/11/15 07:02:01;;;;;;;62.40;58.70;;;8.30;99.90;;;;;;5081337;28;20665;-52
2022/11/15 07:04:27;;;;;;;68.30;64.30;;;8.30;99.90;;;;;;5080924;28;20619;-56
2022/11/15 07:06:52;;;;;;;64.75;60.95;;;8.30;99.90;;;;;;5082964;28;20502;-57
2022/11/15 07:09:17;;;;;;;65.97;61.87;;;8.30;99.90;;;;;;5080772;28;20548;-54
2022/11/15 07:11:43;;;;;;;66.60;62.50;;;8.40;99.90;;;;;;5083113;28;20432;-55
2022/11/15 07:14:08;;;;;;;66.33;62.20;;;8.40;99.90;;;;;;5082058;28;20386;-55
2022/11/15 07:16:41;;;;;;;67.63;63.83;;;8.40;99.90;;;;;;5082243;28;20409;-55
2022/11/15 07:19:08;;;;;;;65.15;61.30;;;8.40;99.90;;;;;;5076890;28;20812;-56
2022/11/15 07:21:34;;;;;;;69.90;65.73;;;8.40;99.90;;;;;;5079682;28;20412;-53
2022/11/15 07:23:59;;;;;;;66.77;62.83;;;8.50;99.90;;;;;;5077355;28;20385;-54
2022/11/15 07:26:25;;;;;;;65.60;61.70;;;8.50;99.90;;;;;;5074370;28;20598;-54
2022/11/15 07:28:50;;;;;;;67.80;63.90;;;8.50;99.90;;;;;;5075729;28;20731;-57
2022/11/15 07:31:16;;;;;;;72.72;68.53;;;8.50;99.90;;;;;;5077985;28;20435;-56
2022/11/15 07:33:41;;;;;;;67.83;63.93;;;8.50;99.90;;;;;;5078469;28;20415;-52
2022/11/15 07:36:10;;;;;;;70.43;66.30;;;8.60;99.90;;;;;;5078483;28;20414;-55
2022/11/15 07:38:36;;;;;;;70.68;66.53;;;8.60;99.90;;;;;;5074670;28;21016;-55
2022/11/15 07:41:05;;;;;;;70.20;66.05;;;8.60;99.90;;;;;;5075067;28;20704;-52
2022/11/15 07:43:33;;;;;;;68.88;64.78;;;8.60;99.90;;;;;;5074170;28;20585;-54
2022/11/15 07:46:03;;;;;;;71.32;67.05;;;8.60;99.90;;;;;;5072901;28;20435;-53
2022/11/15 07:48:29;;;;;;;72.90;68.35;;;8.60;99.90;;;;;;5069361;28;20464;-53
2022/11/15 07:50:55;;;;;;;65.38;61.15;;;8.60;99.90;;;;;;5073756;28;20382;-55
2022/11/15 07:53:23;;;;;;;66.88;62.85;;;8.60;99.90;;;;;;5074493;28;21036;-52
2022/11/15 07:55:48;;;;;;;66.63;62.47;;;8.60;99.90;;;;;;5077143;28;20933;-53
2022/11/15 07:58:14;;;;;;;75.90;71.20;;;8.60;99.90;;;;;;5075059;28;20466;-52
2022/11/15 08:00:39;;;;;;;71.10;66.80;;;8.60;99.90;;;;;;5071842;28;20398;-56
2022/11/15 08:03:10;;;;;;;63.33;59.50;;;8.60;99.90;;;;;;5073620;28;20398;-57
2022/11/15 08:05:39;;;;;;;63.05;59.25;;;8.60;99.90;;;;;;5074264;28;20384;-57
2022/11/15 08:08:05;;;;;;;59.60;56.00;;;8.60;99.90;;;;;;5071293;28;20382;-55
2022/11/15 08:10:31;;;;;;;67.80;63.73;;;8.70;99.90;;;;;;5071747;28;20749;-54
2022/11/15 08:13:02;;;;;;;58.67;55.17;;;8.70;99.90;;;;;;5069856;28;20424;-54
2022/11/15 08:15:29;;;;;;;64.20;60.00;;;8.70;99.90;;;;;;5069463;28;20404;-56
2022/11/15 08:17:59;;;;;;;68.82;64.72;;;8.70;99.90;;;;;;5071049;28;20542;-56
2022/11/15 08:20:28;;;;;;;64.28;60.47;;;8.70;99.90;;;;;;5074259;28;20390;-56
2022/11/15 08:22:54;;;;;;;64.05;60.35;;;8.70;99.90;;;;;;5074084;28;20397;-56
2022/11/15 08:25:19;;;;;;;65.57;61.83;;;8.70;99.90;;;;;;5073925;28;20393;-54
2022/11/15 08:27:45;;;;;;;70.93;66.63;;;8.70;99.90;;;;;;5076764;28;20919;-55
2022/11/15 08:30:11;;;;;;;64.90;60.93;;;8.80;99.90;;;;;;5074857;28;20405;-53
2022/11/15 08:32:37;;;;;;;67.60;63.65;;;8.80;99.90;;;;;;5072720;28;20459;-54
2022/11/15 08:35:02;;;;;;;64.70;60.80;;;8.80;99.90;;;;;;5073293;28;20378;-55
2022/11/15 08:37:28;;;;;;;65.93;62.03;;;8.80;99.90;;;;;;5075351;28;21028;-56
2022/11/15 08:39:53;;;;;;;66.90;63.10;;;8.90;99.90;;;;;;5072906;28;20605;-53
2022/11/15 08:42:19;;;;;;;63.93;60.03;;;8.90;99.90;;;;;;5072845;28;20486;-54
2022/11/15 08:44:47;;;;;;;69.37;65.33;;;8.90;99.90;;;;;;5073265;28;20401;-53
2022/11/15 08:47:13;;;;;;;65.07;61.28;;;8.90;99.90;;;;;;5072291;28;20390;-54
2022/11/15 08:49:39;;;;;;;68.85;64.85;;;8.90;99.90;;;;;;5073790;28;20666;-53
2022/11/15 08:52:04;;;;;;;67.90;63.73;;;8.90;99.90;;;;;;5073498;28;20559;-53
2022/11/15 08:54:30;;;;;;;70.47;66.17;;;8.90;99.90;;;;;;5069473;28;20498;-53
2022/11/15 08:56:56;;;;;;;73.80;68.82;;;9.00;99.90;;;;;;5069700;28;20680;-55
2022/11/15 08:59:22;;;;;;;75.18;70.70;;;8.90;99.90;;;;;;5066307;28;20797;-53
2022/11/15 09:01:47;;;;;;;62.10;58.38;;;8.90;99.90;;;;;;5066086;28;20401;-53
2022/11/15 09:04:13;;;;;;;67.93;63.92;;;9.00;99.90;;;;;;5066085;28;20385;-54
2022/11/15 09:06:38;;;;;;;63.93;60.13;;;9.00;99.90;;;;;;5069525;28;20762;-54
2022/11/15 09:09:04;;;;;;;65.07;61.27;;;9.10;99.90;;;;;;5071835;28;20809;-56
2022/11/15 09:11:30;;;;;;;66.00;62.10;;;9.10;99.90;;;;;;5073322;28;20382;-54
2022/11/15 09:13:55;;;;;;;71.03;66.70;;;9.10;99.90;;;;;;5073532;28;20762;-55
2022/11/15 09:16:24;;;;;;;73.60;69.10;;;9.20;99.90;;;;;;5074842;28;21114;-54
2022/11/15 09:18:49;;;;;;;68.53;64.32;;;9.20;99.90;;;;;;5075105;28;20393;-54
2022/11/15 09:21:15;;;;;;;65.53;61.63;;;9.20;99.90;;;;;;5074055;28;20401;-54
2022/11/15 09:23:40;;;;;;;69.37;65.17;;;9.20;99.90;;;;;;5074581;28;20676;-52
2022/11/15 09:26:15;;;;;;;62.37;58.43;;;9.20;99.90;;;;;;5073607;28;20382;-52
2022/11/15 09:28:41;;;;;;;67.40;63.35;;;9.30;99.90;;;;;;5078472;28;20405;-56
2022/11/15 09:31:08;;;;;;;58.75;55.20;;;9.30;99.90;;;;;;5078345;28;20386;-55
2022/11/15 09:33:33;;;;;;;65.83;61.83;;;9.30;99.90;;;;;;5078087;28;20416;-56
2022/11/15 09:36:04;;;;;;;67.07;63.17;;;9.40;99.90;;;;;;5078798;28;20521;-52
2022/11/15 09:38:31;;;;;;;71.03;66.88;;;9.40;99.90;;;;;;5079445;28;20477;-53
2022/11/15 09:41:34;;;;;;;70.40;66.30;;;9.40;99.90;;;;;;5084635;28;20403;-55
2022/11/15 09:44:17;;;;;;;73.60;69.18;;;9.50;99.90;;;;;;5083147;28;20390;-55
2022/11/15 09:47:03;;;;;;;67.70;63.60;;;9.50;99.90;;;;;;5084645;28;20640;-55
2022/11/15 09:49:30;;;;;;;66.10;62.00;;;9.60;99.90;;;;;;5082238;28;20389;-57
2022/11/15 09:51:59;;;;;;;72.43;68.15;;;9.60;99.90;;;;;;5085394;28;20718;-51
2022/11/15 09:54:46;;;;;;;75.55;70.82;;;9.60;99.90;;;;;;5084053;28;20381;-56
2022/11/15 09:57:41;;;;;;;72.40;67.90;;;9.70;99.90;;;;;;5085127;28;20401;-56
2022/11/15 10:00:41;;;;;;;68.53;64.18;;;9.70;99.90;;;;;;5085450;28;20801;-56
2022/11/15 10:03:14;;;;;;;61.10;57.28;;;9.70;99.90;;;;;;5084555;28;20410;-53
2022/11/15 10:05:44;;;;;;;72.85;68.47;;;9.80;99.90;;;;;;5083262;28;20386;-52
2022/11/15 10:08:30;;;;;;;67.85;63.75;;;9.80;99.90;;;;;;5081542;28;20675;-56
2022/11/15 10:10:58;;;;;;;64.82;60.67;;;9.80;99.90;;;;;;5081276;28;20627;-56
2022/11/15 10:13:31;;;;;;;71.13;66.97;;;9.80;99.90;;;;;;5085693;28;20410;-55
2022/11/15 10:16:10;;;;;;;68.03;64.15;;;9.90;99.90;;;;;;5084001;28;20382;-55
2022/11/15 10:18:57;;;;;;;71.75;67.70;;;9.90;99.90;;;;;;5084926;28;20447;-57
2022/11/15 10:21:49;;;;;;;71.32;67.22;;;10.00;99.90;;;;;;5085359;28;20406;-54
2022/11/15 10:24:23;;;;;;;71.93;67.73;;;10.00;99.90;;;;;;5053414;28;20383;-57
2022/11/15 10:26:49;;;;;;;68.75;64.55;;;10.10;99.90;;;;;;5086047;28;20999;-54
2022/11/15 10:29:20;;;;;;;72.72;68.40;;;10.10;99.90;;;;;;5086449;28;20386;-52
2022/11/15 10:31:45;;;;;;;77.22;72.65;;;10.10;99.90;;;;;;5086759;28;20394;-57
2022/11/15 10:34:19;;;;;;;70.17;66.03;;;10.20;99.90;;;;;;5082191;28;20654;-56
2022/11/15 10:36:46;;;;;;;77.55;73.00;;;10.20;99.90;;;;;;5082950;28;20403;-57
2022/11/15 10:39:13;;;;;;;79.68;74.80;;;10.20;99.90;;;;;;5084053;28;20475;-56
2022/11/15 10:41:41;;;;;;;72.68;68.28;;;10.20;99.90;;;;;;5082450;28;20409;-56
2022/11/15 10:44:06;;;;;;;74.65;70.35;;;10.30;99.90;;;;;;5085987;28;20572;-55
2022/11/15 10:46:34;;;;;;;74.70;70.30;;;10.30;99.90;;;;;;5084315;28;20389;-56
2022/11/15 10:49:28;;;;;;;71.22;67.30;;;10.30;99.90;;;;;;5084914;28;20374;-57
2022/11/15 10:51:55;;;;;;;75.07;70.78;;;10.40;99.90;;;;;;5087262;28;20858;-55
2022/11/15 10:54:36;;;;;;;71.80;67.60;;;10.40;99.90;;;;;;5084226;28;20435;-54
2022/11/15 10:57:08;;;;;;;76.95;72.68;;;10.40;99.90;;;;;;5082864;28;20374;-57
2022/11/15 10:59:37;;;;;;;76.13;71.90;;;10.40;99.90;;;;;;5080101;28;20385;-55
2022/11/15 11:02:21;;;;;;;71.07;67.22;;;10.40;99.90;;;;;;5078150;28;20438;-55
2022/11/15 11:04:52;;;;;;;73.93;69.90;;;10.50;99.90;;;;;;5080179;28;20422;-55
2022/11/15 11:07:25;;;;;;;64.05;60.40;;;10.50;99.90;;;;;;5080650;28;20471;-57
2022/11/15 11:10:00;;;;;;;68.13;64.45;;;10.50;99.90;;;;;;5081674;28;20427;-57
2022/11/15 11:12:36;;;;;;;72.90;68.93;;;10.50;99.90;;;;;;5084614;28;20470;-57
2022/11/15 11:15:11;;;;;;;78.03;73.63;;;10.60;99.90;;;;;;5085452;28;20544;-57
2022/11/15 11:18:09;;;;;;;72.43;68.47;;;10.60;99.90;;;;;;5086074;28;20390;-57
2022/11/15 11:20:44;;;;;;;77.25;73.15;;;10.60;99.90;;;;;;5085764;28;20473;-57
2022/11/15 11:23:13;;;;;;;69.80;66.00;;;10.70;99.90;;;;;;5084663;28;20398;-55
2022/11/15 11:26:03;;;;;;;73.60;69.60;;;10.70;99.90;;;;;;5088217;28;20468;-57
2022/11/15 11:28:45;;;;;;;72.72;68.78;;;10.80;99.90;;;;;;5088471;28;20465;-55
2022/11/15 11:31:36;;;;;;;71.63;67.70;;;10.80;99.90;;;;;;5085269;28;20389;-56
2022/11/15 11:34:36;;;;;;;82.28;77.22;;;10.80;99.90;;;;;;5087388;28;20369;-55
2022/11/15 11:37:32;;;;;;;74.78;70.32;;;10.80;99.90;;;;;;5083562;28;20398;-57
2022/11/15 11:40:05;;;;;;;82.50;77.90;;;10.90;99.90;;;;;;5082161;28;20564;-55
2022/11/15 11:43:08;;;;;;;73.00;68.73;;;10.90;99.90;;;;;;5085475;28;20808;-56
2022/11/15 11:45:49;;;;;;;66.78;62.88;;;10.90;99.90;;;;;;5084722;28;20492;-52
2022/11/15 11:48:38;;;;;;;82.72;78.10;;;10.90;99.90;;;;;;5087040;28;20389;-57
2022/11/15 11:51:15;;;;;;;73.65;69.20;;;10.90;99.90;;;;;;5087916;28;20885;-57
2022/11/15 11:54:01;;;;;;;78.05;73.72;;;10.90;99.90;;;;;;5085088;28;20382;-57
2022/11/15 11:56:33;;;;;;;78.28;73.68;;;11.00;99.90;;;;;;5084026;28;20422;-57
2022/11/15 11:59:36;;;;;;;76.68;72.28;;;11.00;99.90;;;;;;5084946;28;20429;-57
2022/11/15 12:02:24;;;;;;;73.35;68.95;;;11.00;99.90;;;;;;5084797;28;20452;-57
2022/11/15 12:04:52;;;;;;;76.03;71.60;;;11.10;99.90;;;;;;5082924;28;20469;-57
2022/11/15 12:07:29;;;;;;;76.85;72.45;;;11.00;99.90;;;;;;5083119;28;20460;-57
2022/11/15 12:10:01;;;;;;;79.15;74.57;;;11.10;99.90;;;;;;5079704;28;20379;-54
2022/11/15 12:12:55;;;;;;;72.03;67.93;;;11.10;99.90;;;;;;5079604;28;20463;-56
2022/11/15 12:15:50;;;;;;;82.00;77.03;;;11.10;99.90;;;;;;5080153;28;20382;-57
2022/11/15 12:18:16;;;;;;;75.22;71.03;;;11.10;99.90;;;;;;5072490;28;20394;-57
2022/11/15 12:21:26;;;;;;;83.00;78.30;;;11.10;99.90;;;;;;5077525;28;20374;-55
2022/11/15 12:23:59;;;;;;;78.80;74.07;;;11.20;99.90;;;;;;5000610;28;20395;-56
2022/11/15 12:26:35;;;;;;;80.88;76.30;;;11.30;99.90;;;;;;5066596;28;20793;-55
2022/11/15 12:29:25;;;;;;;76.70;72.45;;;11.50;99.90;;;;;;5079062;28;21068;-57
2022/11/15 12:31:56;;;;;;;82.40;78.03;;;11.60;99.90;;;;;;5080269;28;20439;-55
2022/11/15 12:34:21;;;;;;;78.70;74.03;;;11.70;99.90;;;;;;5079070;28;20377;-55
2022/11/15 12:36:49;;;;;;;73.10;69.18;;;11.90;99.90;;;;;;5081048;28;20478;-56
2022/11/15 12:39:16;;;;;;;80.50;76.13;;;12.00;99.90;;;;;;5079042;28;20386;-57
2022/11/15 12:41:44;;;;;;;83.93;79.47;;;12.20;99.90;;;;;;5079020;28;20500;-56
2022/11/15 12:44:35;;;;;;;78.53;74.10;;;12.30;99.90;;;;;;5077603;28;20378;-55
2022/11/15 12:47:10;;;;;;;84.68;80.03;;;12.40;99.90;;;;;;5077052;28;20382;-54
2022/11/15 12:49:35;;;;;;;89.35;84.65;;;12.60;99.90;;;;;;5077828;28;20779;-55
2022/11/15 12:52:01;;;;;;;84.80;80.17;;;12.70;99.90;;;;;;5079414;28;20871;-57
2022/11/15 12:54:35;;;;;;;94.35;89.28;;;12.70;99.90;;;;;;5079641;28;21049;-56
2022/11/15 12:57:04;;;;;;;90.28;85.53;;;12.90;99.90;;;;;;5082909;28;20473;-56
2022/11/15 12:59:48;;;;;;;83.57;79.18;;;13.00;99.90;;;;;;5084115;28;20381;-56
2022/11/15 13:02:37;;;;;;;85.07;80.65;;;13.10;99.90;;;;;;5085852;28;20481;-55
2022/11/15 13:05:44;;;;;;;87.70;82.85;;;13.10;99.90;;;;;;5084837;28;20374;-55
2022/11/15 13:08:43;;;;;;;86.75;82.18;;;13.10;99.90;;;;;;5084262;28;20393;-54
2022/11/15 13:11:49;;;;;;;84.18;79.53;;;13.10;99.90;;;;;;5083880;28;20385;-54
2022/11/15 13:14:36;;;;;;;97.60;92.28;;;13.00;99.90;;;;;;5000894;28;20391;-56
2022/11/15 13:17:10;;;;;;;101.95;96.30;;;12.90;99.90;;;;;;4998678;28;20813;-57
2022/11/15 13:19:36;;;;;;;88.38;83.43;;;12.90;99.90;;;;;;5049196;28;20374;-57